Latest Weather Observations for Nowra

IDN60801

Issued at 8:12 am EST Tuesday 17 September 2019 (issued every 10 minutes, with the page automatically refreshed every 10 minutes)

About weather observations | Map of weather stations | Latest weather observations for NSW | Other Formats
Station Details ID: 068072 Name: NOWRA RAN AIR STATION AWS Lat: -34.95 Lon: 150.54 Height: 109.0 m
Data from the previous 72 hours. | See also: Recent months at Nowra
Date/Time
EST
Temp
°C
App
Temp
°C
Dew
Point
°C
Rel
Hum
%
Delta-T
°C
Wind Press
QNH
hPa
Press
MSL
hPa
Rain since
9am
mm
Dir  Spd
km/h
Gust
km/h
Spd
kts
Gust
kts
17/08:00am 7.7 3.0 7.6 99 0.0 SSW 22 32 12 17 1023.8 1023.7 26.8
17/07:30am 7.4 2.6 7.3 99 0.0 SSW 22 30 12 16 1023.8 1023.7 26.4
17/07:00am 7.2 2.0 7.1 99 0.0 SSW 24 33 13 18 1023.4 1023.3 25.8
17/06:30am 7.0 2.1 6.9 99 0.0 SSW 22 28 12 15 1023.2 1023.1 25.6
17/06:00am 6.9 2.4 6.8 99 0.0 SSW 20 30 11 16 1023.1 1023.0 25.0
17/05:30am 6.8 2.8 6.7 99 0.0 SSW 17 22 9 12 1022.6 1022.6 24.2
17/05:00am 6.8 3.6 6.7 99 0.0 SSW 13 19 7 10 1022.3 1022.3 23.6
17/04:30am 6.7 4.2 6.6 99 0.0 SW 9 15 5 8 1022.5 1022.5 23.2
17/04:00am 6.3 4.1 6.2 99 0.0 W 7 9 4 5 1022.5 1022.5 23.0
17/03:57am 6.3 4.1 6.2 99 0.0 W 7 9 4 5 1022.5 1022.5 23.0
17/03:30am 6.2 3.6 6.1 99 0.0 WNW 9 11 5 6 1022.6 1022.6 22.4
17/03:14am 6.5 3.6 6.4 99 0.0 WSW 11 15 6 8 1022.8 1022.7 21.4
17/03:00am 6.4 3.8 6.3 99 0.0 W 9 13 5 7 1022.6 1022.6 21.0
17/02:30am 6.5 4.0 6.4 99 0.0 SW 9 15 5 8 1023.0 1022.9 19.6
17/02:23am 6.5 4.0 6.4 99 0.0 SW 9 11 5 6 1023.1 1023.0 19.2
17/02:00am 6.5 4.0 6.4 99 0.0 SW 9 13 5 7 1022.9 1022.8 18.4
17/01:30am 6.3 2.6 6.2 99 0.0 SW 15 20 8 11 1023.4 1023.3 17.0
17/01:00am 6.5 2.8 6.4 99 0.0 SW 15 22 8 12 1023.8 1023.7 15.6
17/12:30am 6.8 3.6 6.7 99 0.0 SW 13 19 7 10 1023.9 1023.8 14.8
17/12:00am 6.8 3.9 6.7 99 0.0 WSW 11 15 6 8 1023.7 1023.6 13.4
 
Date/Time
EST
Temp
°C
App
Temp
°C
Dew
Point
°C
Rel
Hum
%
Delta-T
°C
Wind Press
QNH
hPa
Press
MSL
hPa
Rain since
9am
mm
Dir  Spd
km/h
Gust
km/h
Spd
kts
Gust
kts
16/11:30pm 6.9 3.3 6.8 99 0.0 SSW 15 20 8 11 1023.7 1023.6 11.2
16/11:00pm 7.1 3.2 7.0 99 0.0 SW 17 24 9 13 1023.4 1023.3 9.6
16/10:30pm 7.3 3.0 7.2 99 0.0 SSW 19 26 10 14 1023.2 1023.1 8.4
16/10:08pm 7.7 2.2 7.6 99 0.0 SSW 26 32 14 17 1022.9 1022.8 7.6
16/10:00pm 7.8 3.1 7.7 99 0.0 SSW 22 32 12 17 1022.6 1022.6 7.2
16/09:30pm 8.5 4.0 8.5 100 0.0 S 22 32 12 17 1022.6 1022.6 6.4
16/09:00pm 9.2 4.1 9.2 100 0.0 S 26 37 14 20 1022.4 1022.4 5.6
16/08:30pm 9.4 5.1 9.4 100 0.0 S 22 35 12 19 1022.1 1022.1 5.2
16/08:23pm 9.4 4.4 9.4 100 0.0 SSE 26 35 14 19 1021.6 1021.6 5.2
16/08:00pm 9.5 4.1 9.5 100 0.0 S 28 41 15 22 1021.0 1021.0 5.0
16/07:30pm 10.1 6.6 10.1 100 0.0 SSE 19 28 10 15 1021.2 1021.2 3.0
16/07:00pm 10.3 5.1 10.1 99 0.1 SSE 28 41 15 22 1021.0 1021.0 1.6
16/06:30pm 11.0 7.7 10.8 99 0.1 SSE 19 26 10 14 1021.1 1021.1 0.6
16/06:00pm 11.4 7.6 11.2 99 0.1 SSE 22 35 12 19 1020.5 1020.5 0.4
16/05:30pm 12.1 10.1 11.5 96 0.3 SSE 13 17 7 9 1019.9 1019.9 0.2
16/05:00pm 12.5 9.3 11.1 91 0.7 S 19 26 10 14 1019.4 1019.3 0.2
16/04:30pm 13.3 10.3 10.5 83 1.5 SE 17 28 9 15 1018.8 1018.7 0.0
16/04:25pm 13.3 9.9 10.5 83 1.5 SE 19 28 10 15 1018.3 1018.2 0.0
16/04:00pm 13.5 9.7 9.7 78 2.0 SSE 20 26 11 14 1018.0 1017.9 0.0
16/03:30pm 13.5 9.3 9.6 77 2.0 SSE 22 32 12 17 1017.5 1017.4 0.0
16/03:12pm 13.7 9.1 9.7 77 2.1 SSE 24 37 13 20 1017.5 1017.4 0.0
16/03:00pm 14.2 10.0 9.6 74 2.4 SSE 22 32 12 17 1017.0 1016.9 0.0
16/02:30pm 14.6 9.6 9.6 72 2.6 SSE 26 32 14 17 1017.0 1016.9 0.0
16/02:00pm 15.6 11.2 10.4 71 2.7 SSE 24 33 13 18 1016.5 1016.4 0.0
16/01:46pm 15.2 10.7 10.0 71 2.7 SSE 24 35 13 19 1016.6 1016.5 0.0
16/01:30pm 15.4 10.2 10.4 72 2.6 SE 28 39 15 21 1016.6 1016.5 0.0
16/01:00pm 15.6 10.6 10.8 73 2.6 SSE 28 35 15 19 1016.4 1016.3 0.0
16/12:30pm 16.7 10.8 11.0 69 3.1 SSE 33 46 18 25 1016.1 1016.0 0.0
16/12:00pm 16.2 10.2 12.0 76 2.3 S 35 48 19 26 1015.3 1015.2 0.0
16/11:30am 17.2 9.8 12.3 73 2.7 S 43 61 23 33 1015.2 1015.1 0.0
16/11:19am 18.0 11.0 9.9 59 4.3 S 37 61 20 33 1014.8 1014.7 0.0
16/11:13am 21.8 15.3 -2.1 20 10.3 SW 22 44 12 24 1014.4 1014.3 0.0
16/11:00am 25.5 17.1 -9.7 9 13.6 W 28 39 15 21 1013.7 1013.6 0.0
16/10:54am 25.3 16.9 -9.8 9 13.6 W 28 39 15 21 1013.6 1013.5 0.0
16/10:30am 22.6 19.5 3.7 29 9.2 SE 9 13 5 7 1013.5 1013.4 0.0
16/10:00am 23.3 20.3 -8.8 11 12.4 CALM 0 0 0 0 1013.4 1013.3 0.0
16/09:30am 22.6 19.3 -8.2 12 11.9 N 2 7 1 4 1013.5 1013.4 0.0
16/09:00am 22.0 17.0 -8.7 12 11.7 NNW 11 17 6 9 1013.6 1013.5 0.0
16/08:30am 21.6 15.7 -10.1 11 11.7 NW 15 20 8 11 1013.7 1013.6 0.0
16/08:00am 21.2 14.9 -10.4 11 11.5 NW 17 24 9 13 1013.6 1013.5 0.0
16/07:30am 20.5 14.6 -9.8 12 11.1 NW 15 24 8 13 1013.6 1013.5 0.0
16/07:00am 19.8 14.4 -8.4 14 10.5 NW 13 20 7 11 1013.7 1013.6 0.0
16/06:30am 19.1 13.7 -8.1 15 10.2 NW 13 19 7 10 1013.6 1013.5 0.0
16/06:00am 16.8 12.6 -3.9 24 8.2 NW 9 11 5 6 1013.4 1013.3 0.0
16/05:30am 17.1 12.1 -4.2 23 8.4 NNW 13 15 7 8 1013.4 1013.3 0.0
16/05:00am 17.3 12.8 -3.4 24 8.4 NNW 11 13 6 7 1013.7 1013.6 0.0
16/04:30am 16.7 12.6 -2.9 26 7.9 NW 9 11 5 6 1013.8 1013.7 0.0
16/04:00am 15.5 13.7 1.3 38 6.2 CALM 0 0 0 0 1014.2 1014.1 0.0
16/03:30am 14.9 13.5 3.4 46 5.2 CALM 0 0 0 0 1014.5 1014.4 0.0
16/03:00am 14.4 13.2 4.4 51 4.6 CALM 0 0 0 0 1014.5 1014.4 0.0
16/02:30am 15.6 13.8 1.0 37 6.4 CALM 0 0 0 0 1014.6 1014.5 0.0
16/02:00am 16.9 13.7 1.0 34 7.0 NNW 7 9 4 5 1014.9 1014.8 0.0
16/01:30am 16.8 13.6 0.5 33 7.1 NNW 7 11 4 6 1015.5 1015.4 0.0
16/01:00am 16.3 14.6 2.0 38 6.4 CALM 0 0 0 0 1015.9 1015.8 0.0
16/12:30am 15.6 14.0 2.4 41 5.9 CALM 0 0 0 0 1016.3 1016.2 0.0
16/12:00am 17.3 13.6 0.0 31 7.5 NNW 9 11 5 6 1016.5 1016.4 0.0
 
Date/Time
EST
Temp
°C
App
Temp
°C
Dew
Point
°C
Rel
Hum
%
Delta-T
°C
Wind Press
QNH
hPa
Press
MSL
hPa
Rain since
9am
mm
Dir  Spd
km/h
Gust
km/h
Spd
kts
Gust
kts
15/11:30pm 19.2 15.3 -1.8 24 8.9 NNE 9 11 5 6 1016.9 1016.8 0.0
15/11:00pm 20.3 15.9 -2.7 21 9.7 NNW 11 13 6 7 1017.0 1016.9 0.0
15/10:30pm 20.0 15.8 -1.2 24 9.2 N 11 13 6 7 1017.2 1017.1 0.0
15/10:00pm 21.0 16.9 -2.8 20 10.1 NNW 9 13 5 7 1017.4 1017.3 0.0
15/09:30pm 21.7 16.9 -2.9 19 10.5 NNW 13 15 7 8 1017.0 1016.9 0.0
15/09:00pm 21.3 16.9 -2.5 20 10.1 NW 11 15 6 8 1017.2 1017.1 0.0
15/08:30pm 22.5 17.3 -3.0 18 10.9 NW 15 20 8 11 1017.4 1017.3 0.0
15/08:00pm 23.2 17.0 -3.2 17 11.3 NW 20 28 11 15 1017.4 1017.3 0.0
15/07:30pm 23.6 17.4 -2.8 17 11.4 WNW 20 28 11 15 1017.3 1017.2 0.0
15/07:00pm 23.6 18.4 -2.8 17 11.4 WNW 15 24 8 13 1017.1 1017.0 0.0
15/06:30pm 23.0 18.3 -1.8 19 10.9 NW 13 17 7 9 1017.0 1016.9 0.0
15/06:00pm 23.9 19.6 -1.8 18 11.4 W 11 15 6 8 1016.8 1016.7 0.0
15/05:30pm 25.3 20.3 -1.5 17 12.1 WNW 15 20 8 11 1016.6 1016.5 0.0
15/05:00pm 26.4 21.3 -2.3 15 12.8 W 15 30 8 16 1016.6 1016.5 0.0
15/04:30pm 26.2 18.7 -1.6 16 12.6 W 28 39 15 21 1016.6 1016.5 0.0
15/04:00pm 26.8 21.1 -1.1 16 12.8 W 19 32 10 17 1016.5 1016.4 0.0
15/03:30pm 27.1 22.0 0.8 18 12.5 WNW 17 22 9 12 1016.5 1016.4 0.0
15/03:00pm 28.0 22.3 0.7 17 13.1 W 20 33 11 18 1016.7 1016.6 0.0
15/02:30pm 27.1 22.1 -0.9 16 12.9 W 15 22 8 12 1016.9 1016.8 0.0
15/02:00pm 26.4 21.9 -6.4 11 13.6 N 9 11 5 6 1017.0 1016.9 0.0
15/01:30pm 26.7 22.1 -7.4 10 14.0 NNW 9 15 5 8 1017.3 1017.2 0.0
15/01:00pm 26.3 21.2 -5.3 12 13.4 WNW 13 22 7 12 1018.0 1017.9 0.0
15/12:30pm 27.3 20.7 -6.9 10 14.2 WNW 20 32 11 17 1018.4 1018.3 0.0
15/12:00pm 27.0 20.4 -7.2 10 14.0 WNW 20 28 11 15 1018.9 1018.8 0.0
15/11:30am 26.9 21.5 -8.6 9 14.2 WNW 13 24 7 13 1019.3 1019.2 0.0
15/11:00am 24.8 18.0 -8.8 10 13.1 W 20 28 11 15 1019.8 1019.7 0.0
15/10:30am 24.7 18.9 -4.6 14 12.4 W 17 26 9 14 1020.2 1020.2 0.0
15/10:00am 23.5 17.5 -1.4 19 11.0 WNW 20 28 11 15 1020.5 1020.5 0.0
15/09:30am 21.0 14.9 0.2 25 9.3 NW 22 28 12 15 1021.0 1021.0 0.0
15/09:00am 19.5 13.1 1.0 29 8.3 NW 24 32 13 17 1020.9 1020.9 0.0
15/08:30am 17.8 11.4 0.9 32 7.5 NW 24 32 13 17 1020.9 1020.9 0.0
15/08:00am 16.4 9.3 1.3 36 6.6 NW 28 33 15 18 1020.9 1020.9 0.0
15/07:30am 14.9 8.2 1.4 40 5.9 NW 26 35 14 19 1021.0 1021.0 0.0
15/07:00am 13.6 6.5 1.6 44 5.2 WNW 28 37 15 20 1020.8 1020.8 0.0
15/06:30am 12.5 5.8 1.5 47 4.7 NW 26 32 14 17 1020.5 1020.5 0.0
15/06:00am 12.0 5.3 1.6 49 4.4 NW 26 32 14 17 1020.3 1020.3 0.0
15/05:30am 11.8 5.5 1.7 50 4.3 NW 24 32 13 17 1020.1 1020.1 0.0
15/05:00am 12.1 5.1 2.0 50 4.3 NW 28 35 15 19 1019.9 1019.9 0.0
15/04:30am 11.8 4.9 2.5 53 4.1 NW 28 33 15 18 1019.8 1019.7 0.0
15/04:00am 11.2 5.9 2.8 56 3.7 NW 20 28 11 15 1019.7 1019.6 0.0
15/03:30am 11.0 5.3 3.1 58 3.5 NW 22 28 12 15 1019.9 1019.9 0.0
15/03:00am 11.0 5.8 3.8 61 3.2 WNW 20 24 11 13 1020.0 1020.0 0.0
15/02:30am 10.9 5.5 4.4 64 2.9 NW 22 28 12 15 1020.3 1020.3 0.0
15/02:00am 10.4 5.1 5.2 70 2.4 NW 22 28 12 15 1020.6 1020.6 0.0
15/01:30am 9.4 4.9 6.3 81 1.4 NW 19 22 10 12 1021.0 1021.0 0.0
15/01:00am 7.4 4.6 6.8 96 0.3 NNW 11 15 6 8 1021.6 1021.6 0.0
15/12:30am 7.1 4.8 5.7 91 0.6 NNW 7 9 4 5 1022.0 1022.0 0.0
15/12:00am 8.0 4.7 6.5 90 0.7 NW 13 15 7 8 1022.4 1022.4 0.0
 
Date/Time
EST
Temp
°C
App
Temp
°C
Dew
Point
°C
Rel
Hum
%
Delta-T
°C
Wind Press
QNH
hPa
Press
MSL
hPa
Rain since
9am
mm
Dir  Spd
km/h
Gust
km/h
Spd
kts
Gust
kts
14/11:30pm 8.4 5.3 7.2 92 0.6 NW 13 15 7 8 1022.6 1022.6 0.0
14/11:00pm 7.5 5.3 6.1 91 0.6 WNW 7 9 4 5 1023.1 1023.0 0.0
14/10:30pm 6.4 5.4 5.4 93 0.4 CALM 0 4 0 2 1023.1 1023.0 0.0
14/10:00pm 7.6 5.4 6.1 90 0.7 W 7 9 4 5 1023.5 1023.4 0.0
14/09:30pm 7.3 6.3 5.6 89 0.8 CALM 0 6 0 3 1023.5 1023.4 0.0
14/09:00pm 8.2 7.0 6.3 88 0.9 W 2 9 1 5 1023.5 1023.4 0.0
14/08:30pm 8.2 6.4 5.5 83 1.2 W 4 9 2 5 1023.7 1023.6 0.0
14/08:00pm 8.3 7.3 5.6 83 1.2 CALM 0 4 0 2 1023.7 1023.6 0.0
14/07:30pm 9.0 6.7 5.9 81 1.4 WSW 7 9 4 5 1023.5 1023.4 0.0
14/07:00pm 8.9 7.8 5.1 77 1.7 CALM 0 0 0 0 1023.4 1023.3 0.0
14/06:30pm 12.4 10.8 6.2 66 2.9 ENE 4 7 2 4 1023.1 1023.0 0.0
14/06:00pm 13.1 10.9 6.0 62 3.4 ESE 7 9 4 5 1022.9 1022.8 0.0
14/05:30pm 14.3 11.3 6.2 58 3.9 ESE 11 15 6 8 1022.6 1022.6 0.0
14/05:00pm 15.5 12.1 6.0 53 4.6 ESE 13 17 7 9 1022.3 1022.3 0.0
14/04:30pm 16.2 12.5 6.1 51 4.9 ESE 15 19 8 10 1021.7 1021.7 0.0
14/04:00pm 16.9 12.8 6.1 49 5.3 ESE 17 24 9 13 1021.6 1021.6 0.0
14/03:30pm 17.3 12.8 6.2 48 5.5 ESE 19 22 10 12 1021.5 1021.5 0.0
14/03:00pm 17.6 13.3 6.8 49 5.4 ESE 19 24 10 13 1021.3 1021.3 0.0
14/02:30pm 18.3 14.0 6.8 47 5.8 E 19 24 10 13 1021.3 1021.3 0.0
14/02:00pm 18.3 14.7 6.8 47 5.8 ESE 15 32 8 17 1021.4 1021.4 0.0
14/01:30pm 18.4 14.1 6.9 47 5.8 E 19 24 10 13 1021.7 1021.7 0.0
14/01:00pm 18.8 15.3 7.3 47 5.8 E 15 26 8 14 1021.7 1021.7 0.0
14/12:30pm 18.6 15.1 7.4 48 5.7 SE 15 24 8 13 1021.9 1021.9 0.0
14/12:00pm 18.8 15.5 7.9 49 5.6 SE 15 22 8 12 1022.3 1022.3 0.0
14/11:30am 17.5 14.6 8.1 54 4.8 SE 13 17 7 9 1022.6 1022.6 0.0
14/11:00am 18.2 14.6 9.8 58 4.4 SE 19 26 10 14 1023.0 1022.9 0.0
14/10:30am 16.3 12.4 9.5 64 3.6 SE 20 28 11 15 1023.3 1023.2 0.0
14/10:00am 16.5 14.1 8.5 59 4.1 ESE 11 15 6 8 1023.4 1023.3 0.0
14/09:30am 17.8 15.6 9.4 58 4.4 SE 11 24 6 13 1023.6 1023.5 0.0
14/09:00am 16.3 13.7 6.2 51 4.9 S 9 13 5 7 1023.5 1023.4 0.0
14/08:30am 16.5 12.5 2.9 40 6.2 W 13 19 7 10 1023.3 1023.2 0.0

Other formats

Comma delimited format used in spreadsheet applications
http://www.bom.gov.au/fwo/IDN60801/IDN60801.94750.axf

JavaScript Object Notation format (JSON) in row-major order
http://www.bom.gov.au/fwo/IDN60801/IDN60801.94750.json

Data quality

Most of these data are generated automatically and are frequently updated. Quality checks on data are not normally performed. It is possible for incorrect values to appear. Refer to information at About Latest Weather Observations and please check the disclaimer before using these data.